Time;durP1;ratioP1;P1;durP2;ratioP2;P2;SDS_P1;SDS_P2;PMS_P1;PMS_P2;Temp;Humidity;BMP_temperature;BMP_pressure;BME280_temperature;BME280_humidity;BME280_pressure;Samples;Min_cycle;Max_cycle;Signal;HPM_P1;HPM_P2
2022/04/01 00:00:16;;;;;;;;;57.67;48.67;;;;;11.58;100.00;97126.88;6309777;20;3620180;-51
2022/04/01 00:02:45;;;;;;;;;64.00;48.33;;;;;11.69;100.00;97125.72;6312946;20;3638812;-50
2022/04/01 00:05:15;;;;;;;;;61.67;51.00;;;;;11.70;100.00;97133.63;6314158;20;3621072;-53
2022/04/01 00:07:45;;;;;;;;;66.67;51.00;;;;;11.77;100.00;97125.72;6315659;20;3630452;-52
2022/04/01 00:10:14;;;;;;;;;58.00;47.67;;;;;11.80;100.00;97128.13;6310579;20;3619079;-49
2022/04/01 00:12:46;;;;;;;;;55.00;44.33;;;;;11.43;100.00;97130.19;6315097;20;3611705;-50
2022/04/01 00:15:16;;;;;;;;;53.33;43.00;;;;;11.64;100.00;97131.59;6313441;20;3615864;-49
2022/04/01 00:17:46;;;;;;;;;53.33;41.00;;;;;11.73;100.00;97124.41;6314085;20;3614926;-49
2022/04/01 00:20:18;;;;;;;;;63.00;47.67;;;;;11.89;100.00;97124.44;6312160;20;3637852;-52
2022/04/01 00:22:48;;;;;;;;;55.33;44.33;;;;;11.82;100.00;97126.06;6311870;20;3617926;-49
2022/04/01 00:25:17;;;;;;;;;55.00;44.33;;;;;11.84;100.00;97124.91;6314840;20;3627397;-50
2022/04/01 00:27:47;;;;;;;;;53.33;43.00;;;;;11.95;100.00;97110.34;6313434;20;2850259;-53
2022/04/01 00:30:17;;;;;;;;;60.00;48.33;;;;;11.87;100.00;97115.69;6313499;20;3624244;-54
2022/04/01 00:32:46;;;;;;;;;57.67;43.33;;;;;12.03;100.00;97113.06;6313235;20;3631469;-51
2022/04/01 00:35:16;;;;;;;;;55.00;42.67;;;;;11.92;100.00;97118.75;6313127;20;3611683;-49
2022/04/01 00:37:46;;;;;;;;;59.67;47.33;;;;;12.14;100.00;97113.72;6309924;20;3609601;-50
2022/04/01 00:40:15;;;;;;;;;61.00;47.67;;;;;12.19;100.00;97112.22;6312596;20;3628472;-53
2022/04/01 00:42:45;;;;;;;;;55.00;43.00;;;;;11.83;100.00;97108.97;6311765;20;2860721;-51
2022/04/01 00:45:16;;;;;;;;;54.00;42.33;;;;;11.75;100.00;97112.47;6313226;20;3616899;-50
2022/04/01 00:47:45;;;;;;;;;55.00;45.00;;;;;11.75;100.00;97103.56;6313628;20;3601282;-50
2022/04/01 00:50:15;;;;;;;;;57.00;45.00;;;;;11.96;100.00;97106.66;6311545;20;3632517;-52
2022/04/01 00:52:45;;;;;;;;;57.33;44.33;;;;;11.94;100.00;97107.81;6311587;20;3626257;-51
2022/04/01 00:55:15;;;;;;;;;56.00;44.33;;;;;11.89;100.00;97116.38;6312978;20;3619065;-48
2022/04/01 00:57:44;;;;;;;;;55.00;43.67;;;;;11.64;100.00;97113.63;6313791;20;3617927;-48
2022/04/01 01:00:15;;;;;;;;;48.33;40.00;;;;;11.68;100.00;97118.66;6308502;20;3603351;-48
2022/04/01 01:02:44;;;;;;;;;53.33;43.67;;;;;11.52;100.00;97120.31;6311639;20;2859711;-49
2022/04/01 01:05:14;;;;;;;;;57.00;47.00;;;;;11.54;100.00;97109.41;6313214;20;3624190;-49
2022/04/01 01:07:43;;;;;;;;;59.67;46.00;;;;;11.64;100.00;97110.94;6310071;20;3634681;-52
2022/04/01 01:10:14;;;;;;;;;50.50;42.00;;;;;11.59;100.00;97121.34;6308562;20;2860758;-48
2022/04/01 01:12:45;;;;;;;;;57.00;46.67;;;;;11.68;100.00;97132.94;6278954;20;3620101;-49
2022/04/01 01:15:18;;;;;;;;;54.00;44.67;;;;;11.60;100.00;97128.38;6311379;20;3614141;-47
2022/04/01 01:17:49;;;;;;;;;57.67;44.00;;;;;11.53;100.00;97126.53;6314459;20;3624209;-51
2022/04/01 01:20:20;;;;;;;;;54.00;43.00;;;;;11.57;100.00;97117.13;6278295;20;3626260;-51
2022/04/01 01:22:51;;;;;;;;;57.33;44.67;;;;;11.65;100.00;97126.06;6313697;20;3617938;-51
2022/04/01 01:25:21;;;;;;;;;76.33;56.67;;;;;11.75;100.00;97122.41;6312542;20;3643097;-49
2022/04/01 01:27:51;;;;;;;;;77.33;60.67;;;;;11.76;100.00;97116.00;6279548;20;3665933;-47
2022/04/01 01:30:20;;;;;;;;;66.00;50.00;;;;;11.71;100.00;97115.66;6276854;20;3650326;-47
2022/04/01 01:32:50;;;;;;;;;56.33;43.00;;;;;11.50;100.00;97114.25;6279205;20;3620041;-49
2022/04/01 01:35:19;;;;;;;;;57.00;44.33;;;;;11.50;100.00;97118.78;6313097;20;3612731;-47
2022/04/01 01:37:49;;;;;;;;;52.00;38.00;;;;;11.61;100.00;97124.72;6311728;20;3618962;-49
2022/04/01 01:40:19;;;;;;;;;52.00;42.67;;;;;11.66;100.00;97116.13;6308863;20;3601494;-50
2022/04/01 01:42:48;;;;;;;;;53.67;42.00;;;;;11.45;100.00;97113.91;6311302;20;3621168;-49
2022/04/01 01:45:19;;;;;;;;;59.00;46.33;;;;;11.58;100.00;97108.88;6309194;20;3632578;-50
2022/04/01 01:47:48;;;;;;;;;58.67;43.33;;;;;11.73;100.00;97100.22;6315313;20;3623165;-52
2022/04/01 01:55:54;;;;;;;;;51.67;42.33;;;;;11.43;100.00;97095.28;6310872;20;3589945;-51
2022/04/01 01:58:23;;;;;;;;;57.67;46.00;;;;;11.61;100.00;97084.41;6309646;20;3625248;-51
2022/04/01 02:00:53;;;;;;;;;54.67;44.00;;;;;11.60;100.00;97080.00;6311232;20;3627396;-50
2022/04/01 02:03:21;;;;;;;;;53.00;45.33;;;;;11.51;100.00;97081.03;6315151;20;3595085;-50
2022/04/01 02:05:51;;;;;;;;;53.67;43.00;;;;;11.47;100.00;97085.03;6275598;20;2862874;-51
2022/04/01 02:08:20;;;;;;;;;50.67;38.67;;;;;11.52;100.00;97085.38;6309271;20;2869100;-50
2022/04/01 02:10:50;;;;;;;;;53.33;41.33;;;;;11.38;100.00;97080.66;6309908;20;2863929;-49
2022/04/01 02:13:19;;;;;;;;;58.33;47.33;;;;;11.42;100.00;97076.63;6309590;20;3624190;-50
2022/04/01 02:15:50;;;;;;;;;56.33;42.67;;;;;11.60;100.00;97060.38;6309216;20;3620008;-52
2022/04/01 02:18:20;;;;;;;;;57.00;44.67;;;;;11.67;100.00;97057.88;6309198;20;3612749;-51
2022/04/01 02:20:50;;;;;;;;;51.33;43.00;;;;;11.37;100.00;97073.56;6309978;20;2853639;-50
2022/04/01 02:23:19;;;;;;;;;56.00;45.00;;;;;11.61;100.00;97079.03;6312745;20;3624257;-51
2022/04/01 02:25:50;;;;;;;;;58.00;46.00;;;;;11.52;100.00;97073.78;6312094;20;3609590;-50
2022/04/01 02:28:21;;;;;;;;;62.00;46.33;;;;;11.59;100.00;97069.44;6308536;20;3653480;-48
2022/04/01 02:30:50;;;;;;;;;55.67;44.00;;;;;11.58;100.00;97067.75;6276942;20;3633587;-52
2022/04/01 02:33:20;;;;;;;;;59.33;48.33;;;;;11.52;100.00;97063.88;6311518;20;3615945;-50
2022/04/01 02:35:50;;;;;;;;;58.33;45.00;;;;;11.63;100.00;97063.56;6309179;20;3625253;-52
2022/04/01 02:38:20;;;;;;;;;59.00;43.00;;;;;11.38;100.00;97080.66;6309740;20;3630430;-52
2022/04/01 02:40:49;;;;;;;;;59.33;45.67;;;;;11.39;100.00;97077.78;6308791;20;3623158;-50
2022/04/01 02:43:24;;;;;;;;;54.00;42.67;;;;;11.37;100.00;97079.81;6310313;20;3621041;-49
2022/04/01 02:45:53;;;;;;;;;55.00;45.00;;;;;11.47;100.00;97071.59;6311446;20;3610682;-51
2022/04/01 02:48:23;;;;;;;;;50.33;42.33;;;;;11.40;100.00;97062.50;6315644;20;3612740;-49
2022/04/01 02:50:52;;;;;;;;;54.50;45.00;;;;;11.29;100.00;97076.25;6314394;20;2852444;-50
2022/04/01 02:53:22;;;;;;;;;53.33;43.67;;;;;11.43;100.00;97067.56;6320156;20;2863959;-49
2022/04/01 02:55:52;;;;;;;;;52.00;43.00;;;;;11.74;100.00;97064.25;6314279;20;2859778;-53
2022/04/01 02:58:21;;;;;;;;;56.00;44.00;;;;;11.67;100.00;97065.94;6315404;20;3631716;-51
2022/04/01 03:00:51;;;;;;;;;57.67;44.33;;;;;11.81;100.00;97062.56;6317090;20;3618009;-51
2022/04/01 03:03:21;;;;;;;;;54.67;44.33;;;;;11.53;100.00;97056.66;6314064;20;3611721;-50
2022/04/01 03:05:50;;;;;;;;;57.00;40.67;;;;;11.65;100.00;97066.91;6313695;20;3625286;-50
2022/04/01 03:08:20;;;;;;;;;58.67;45.00;;;;;11.40;100.00;97065.19;6315151;20;3626294;-53
2022/04/01 03:10:49;;;;;;;;;58.33;45.00;;;;;11.44;100.00;97074.63;6313032;20;3637722;-52
2022/04/01 03:13:19;;;;;;;;;57.33;46.00;;;;;11.23;100.00;97079.59;6314734;20;3625237;-52
2022/04/01 03:15:49;;;;;;;;;58.67;46.00;;;;;11.13;100.00;97088.59;6315015;20;3637731;-53
2022/04/01 03:18:18;;;;;;;;;60.00;47.67;;;;;11.15;100.00;97091.97;6315342;20;3607540;-50
2022/04/01 03:20:48;;;;;;;;;61.00;46.00;;;;;11.20;100.00;97091.50;6315077;20;3632507;-49
2022/04/01 03:23:17;;;;;;;;;60.00;46.00;;;;;11.29;100.00;97077.06;6316067;20;3631550;-50
2022/04/01 03:25:47;;;;;;;;;55.33;45.00;;;;;11.31;100.00;97082.31;6313345;20;3623145;-49
2022/04/01 03:28:17;;;;;;;;;60.00;45.33;;;;;11.43;100.00;97076.47;6313374;20;3618091;-48
2022/04/01 03:30:50;;;;;;;;;53.67;45.33;;;;;11.27;100.00;97078.25;6313130;20;2858722;-49
2022/04/01 03:33:20;;;;;;;;;60.67;45.33;;;;;11.47;100.00;97079.66;6314133;20;3636681;-48
2022/04/01 03:35:50;;;;;;;;;57.33;43.00;;;;;11.23;100.00;97071.53;6314353;20;3631516;-50
2022/04/01 03:38:20;;;;;;;;;59.00;47.00;;;;;11.13;100.00;97069.81;6278222;20;3627301;-49
2022/04/01 03:40:53;;;;;;;;;60.67;46.00;;;;;11.34;100.00;97074.75;6313433;20;3637711;-49
2022/04/01 03:43:25;;;;;;;;;62.00;47.33;;;;;11.36;100.00;97079.97;6314937;20;3632595;-50
2022/04/01 03:45:56;;;;;;;;;64.00;49.00;;;;;11.50;100.00;97073.94;6312608;20;3640861;-50
2022/04/01 03:49:02;;;;;;;;;58.33;43.33;;;;;11.56;100.00;97070.63;6280378;20;3635723;-48
2022/04/01 03:51:32;;;;;;;;;59.33;47.00;;;;;11.58;100.00;97062.38;6314243;20;3628397;-50
2022/04/01 03:54:05;;;;;;;;;56.33;44.00;;;;;11.54;100.00;97074.47;6311056;20;3621263;-48
2022/04/01 03:56:37;;;;;;;;;54.67;42.00;;;;;11.67;100.00;97072.16;6315168;20;3623170;-51
2022/04/01 03:59:09;;;;;;;;;64.00;47.00;;;;;11.68;100.00;97075.66;6312179;20;2774215;-50
2022/04/01 04:01:39;;;;;;;;;60.33;45.33;;;;;11.59;100.00;97072.97;6282206;20;3648149;-47
2022/04/01 04:04:09;;;;;;;;;57.67;43.67;;;;;11.66;100.00;97067.75;6313951;20;3631496;-48
2022/04/01 04:06:40;;;;;;;;;59.67;45.67;;;;;11.65;100.00;97072.31;6315871;20;3622109;-52
2022/04/01 04:09:10;;;;;;;;;52.67;43.00;;;;;11.49;100.00;97056.16;6281330;20;3603463;-51
2022/04/01 04:11:40;;;;;;;;;54.67;45.00;;;;;11.52;100.00;97060.34;6314148;20;3609597;-47
2022/04/01 04:14:09;;;;;;;;;57.67;45.00;;;;;11.61;100.00;97060.22;6311964;20;3626360;-50
2022/04/01 04:16:48;;;;;;;;;60.67;46.00;;;;;11.33;100.00;97072.25;6314458;20;3630518;-49
2022/04/01 04:19:36;;;;;;;;;54.33;42.67;;;;;11.35;100.00;97067.56;6311103;20;3616958;-48
2022/04/01 04:22:13;;;;;;;;;61.67;48.67;;;;;11.51;100.00;97062.22;6314574;20;3624207;-47
2022/04/01 04:24:58;;;;;;;;;56.33;42.00;;;;;11.42;100.00;97066.69;6313585;20;3635689;-47
2022/04/01 04:27:30;;;;;;;;;62.67;48.00;;;;;11.41;100.00;97058.81;6278815;20;3630448;-48
2022/04/01 04:30:10;;;;;;;;;62.33;48.00;;;;;11.50;100.00;97057.81;6312359;20;3638897;-49
2022/04/01 04:32:56;;;;;;;;;59.67;48.00;;;;;11.39;100.00;97069.72;6279653;20;3618997;-49
2022/04/01 04:35:29;;;;;;;;;62.67;48.67;;;;;11.33;100.00;97069.56;6312549;20;3631509;-47
2022/04/01 04:37:59;;;;;;;;;61.75;46.00;;;;;11.35;100.00;97062.19;6313547;20;3638854;-47
2022/04/01 04:40:28;;;;;;;;;61.67;50.00;;;;;11.46;100.00;97067.25;6310015;20;2867162;-47
2022/04/01 04:42:59;;;;;;;;;63.67;49.00;;;;;11.51;100.00;97059.53;6313387;20;3629412;-46
2022/04/01 04:45:29;;;;;;;;;65.33;45.67;;;;;11.47;100.00;97049.25;6311664;20;3654381;-46
2022/04/01 04:47:59;;;;;;;;;57.67;45.67;;;;;11.46;100.00;97056.50;6280362;20;3624306;-47
2022/04/01 04:50:29;;;;;;;;;62.67;49.00;;;;;11.61;100.00;97053.97;6311229;20;3634618;-46
2022/04/01 04:52:59;;;;;;;;;61.33;46.00;;;;;11.29;100.00;97054.75;6313156;20;3635635;-47
2022/04/01 04:55:28;;;;;;;;;58.67;49.00;;;;;11.48;100.00;97054.47;6309269;20;3615842;-47
2022/04/01 04:57:58;;;;;;;;;64.33;49.00;;;;;11.43;100.00;97056.81;6310102;20;3635643;-47
2022/04/01 05:00:28;;;;;;;;;64.00;48.50;;;;;11.39;100.00;97055.47;6312307;20;4394087;-46
2022/04/01 05:03:19;;;;;;;;;66.00;50.33;;;;;11.52;100.00;97047.75;6311351;20;3630457;-48
2022/04/01 05:05:56;;;;;;;;;65.33;49.00;;;;;11.61;100.00;97048.59;6312161;20;3653346;-47
2022/04/01 05:09:26;;;;;;;;;62.67;48.00;;;;;11.59;100.00;97054.16;6277058;20;3635690;-50
2022/04/01 05:12:32;;;;;;;;;68.67;52.33;;;;;11.30;100.00;97045.72;6309554;20;2854510;-48
2022/04/01 05:15:10;;;;;;;;;70.33;51.00;;;;;11.64;100.00;97046.44;6312245;20;3638772;-49
2022/04/01 05:18:06;;;;;;;;;66.67;51.00;;;;;11.47;100.00;97044.72;6310429;20;2875399;-51
2022/04/01 05:21:04;;;;;;;;;55.67;45.00;;;;;11.57;100.00;97053.47;6310037;20;2871247;-50
2022/04/01 05:23:48;;;;;;;;;57.33;46.00;;;;;11.32;100.00;97046.38;6312007;20;3612839;-50
2022/04/01 05:26:38;;;;;;;;;56.00;44.00;;;;;11.63;100.00;97054.66;6309620;20;3624191;-51
2022/04/01 05:29:18;;;;;;;;;59.00;43.33;;;;;11.71;100.00;97051.13;6310257;20;3624234;-50
2022/04/01 05:32:05;;;;;;;;;51.67;40.33;;;;;11.78;100.00;97060.22;6310370;20;2870191;-51
2022/04/01 05:34:47;;;;;;;;;54.00;40.67;;;;;11.68;100.00;97062.22;6314336;20;3622342;-49
2022/04/01 05:37:18;;;;;;;;;55.00;43.67;;;;;11.60;100.00;97058.50;6311395;20;3600236;-51
2022/04/01 05:39:49;;;;;;;;;53.33;42.67;;;;;11.70;100.00;97060.22;6310482;20;3608564;-49
2022/04/01 05:42:19;;;;;;;;;51.33;40.33;;;;;11.73;100.00;97057.19;6308298;20;2859884;-49
2022/04/01 05:44:50;;;;;;;;;56.00;41.67;;;;;11.76;100.00;97064.91;6311696;20;3627329;-52
2022/04/01 05:47:24;;;;;;;;;54.00;42.33;;;;;11.85;100.00;97066.63;6308778;20;2859749;-52
2022/04/01 05:49:59;;;;;;;;;51.67;40.33;;;;;11.60;100.00;97069.25;6308694;20;3600313;-49
2022/04/01 05:52:30;;;;;;;;;51.67;41.67;;;;;11.63;100.00;97068.94;6316056;20;3612723;-58
2022/04/01 05:55:00;;;;;;;;;51.33;41.00;;;;;11.54;100.00;97059.19;6279528;20;2868230;-56
2022/04/01 05:57:31;;;;;;;;;54.67;41.33;;;;;11.92;100.00;97064.13;6311880;20;3617088;-56
2022/04/01 06:00:05;;;;;;;;;60.33;50.33;;;;;11.90;100.00;97064.31;6311729;20;3614946;-57
2022/04/01 06:03:52;;;;;;;;;53.00;40.33;;;;;12.05;100.00;97059.09;6314918;20;3602359;-57
2022/04/01 06:06:44;;;;;;;;;48.33;39.00;;;;;11.77;100.00;97048.63;6276438;20;2855975;-56
2022/04/01 06:09:26;;;;;;;;;55.33;43.00;;;;;11.66;100.00;97051.63;6311407;20;3621092;-57
2022/04/01 06:12:24;;;;;;;;;52.33;37.00;;;;;11.72;100.00;97051.00;6276340;20;2870185;-57
2022/04/01 06:15:30;;;;;;;;;45.33;37.00;;;;;11.93;100.00;97053.22;6314359;20;3590869;-57
2022/04/01 06:18:51;;;;;;;;;45.50;38.00;;;;;12.32;100.00;97051.66;6279550;20;2861733;-57
2022/04/01 06:21:27;;;;;;;;;48.00;39.00;;;;;11.94;100.00;97046.81;6281874;20;2860660;-58
2022/04/01 06:24:12;;;;;;;;;48.33;43.00;;;;;12.06;100.00;97048.16;6283310;20;3611866;-59
2022/04/01 06:26:55;;;;;;;;;54.33;43.00;;;;;12.43;100.00;97049.47;6316541;20;3591934;-59
2022/04/01 06:29:39;;;;;;;;;51.00;39.67;;;;;12.10;100.00;97047.81;6281831;20;2868114;-49
2022/04/01 06:32:13;;;;;;;;;43.00;36.50;;;;;11.94;100.00;97045.97;6316593;20;2831609;-54
2022/04/01 06:35:08;;;;;;;;;51.00;38.00;;;;;12.17;100.00;97038.91;6281200;20;2869157;-56
2022/04/01 06:38:08;;;;;;;;;41.00;37.33;;;;;12.30;100.00;97035.72;6315338;20;2848450;-55
2022/04/01 06:40:58;;;;;;;;;52.67;42.00;;;;;11.99;100.00;97043.63;6316848;20;3611742;-54
2022/04/01 06:43:27;;;;;;;;;51.33;39.00;;;;;11.94;100.00;97046.81;6281704;20;3599387;-56
2022/04/01 06:45:57;;;;;;;;;47.33;39.33;;;;;12.10;100.00;97043.28;6280611;20;2851400;-57
2022/04/01 06:48:26;;;;;;;;;39.67;35.00;;;;;11.84;100.00;97054.16;6319931;20;3593019;-58
2022/04/01 06:50:55;;;;;;;;;39.50;34.50;;;;;12.18;100.00;97045.13;6279131;20;2493112;-56
2022/04/01 06:53:25;;;;;;;;;40.67;36.00;;;;;11.96;100.00;97052.88;6288068;20;3561677;-56
2022/04/01 06:55:54;;;;;;;;;49.00;39.00;;;;;12.03;100.00;97048.50;6312967;20;2866898;-57
2022/04/01 06:58:30;;;;;;;;;42.33;35.00;;;;;12.24;100.00;97047.13;6317974;20;3590839;-56
2022/04/01 07:00:59;;;;;;;;;43.50;36.50;;;;;12.10;100.00;97054.03;6284179;20;2845041;-56
2022/04/01 07:03:35;;;;;;;;;42.00;34.33;;;;;12.19;100.00;97057.56;6287464;20;3621037;-56
2022/04/01 07:06:06;;;;;;;;;33.00;32.33;;;;;12.27;100.00;97060.25;6286931;20;3599294;-55
2022/04/01 07:08:36;;;;;;;;;34.33;28.33;;;;;12.18;100.00;97055.88;6284075;20;2854595;-57
2022/04/01 07:11:05;;;;;;;;;37.00;32.33;;;;;12.11;100.00;97066.47;6319780;20;3603409;-57
2022/04/01 07:13:33;;;;;;;;;38.00;35.00;;;;;12.20;100.00;97070.00;6284151;20;2841912;-57
2022/04/01 07:16:05;;;;;;;;;37.33;35.00;;;;;12.10;100.00;97066.66;6285364;20;2860905;-57
2022/04/01 07:18:34;;;;;;;;;38.00;33.00;;;;;11.98;100.00;97061.63;6317965;20;3607677;-56
2022/04/01 07:21:04;;;;;;;;;45.33;36.67;;;;;11.98;100.00;97061.63;6285471;20;2873282;-57
2022/04/01 07:23:33;;;;;;;;;50.67;37.67;;;;;12.08;100.00;97058.75;6315996;20;3615038;-57
2022/04/01 07:26:02;;;;;;;;;43.00;38.00;;;;;12.11;100.00;97047.63;6283909;20;2851327;-58
2022/04/01 07:28:32;;;;;;;;;42.67;34.33;;;;;11.91;100.00;97052.53;6288187;20;3582501;-58
2022/04/01 07:34:23;;;;;;;;;39.33;35.33;;;;;11.93;100.00;97041.59;6314296;20;3602412;-59
2022/04/01 07:36:53;;;;;;;;;43.33;32.00;;;;;11.79;100.00;97045.78;6282147;20;3619005;-58
2022/04/01 07:39:22;;;;;;;;;36.67;33.00;;;;;11.84;100.00;97049.63;6316652;20;3614805;-58
2022/04/01 07:41:51;;;;;;;;;35.00;28.00;;;;;12.04;100.00;97055.56;6285198;20;3611779;-58
2022/04/01 07:44:22;;;;;;;;;43.67;30.00;;;;;11.97;100.00;97051.84;6318490;20;3625230;-58
2022/04/01 07:46:51;;;;;;;;;40.00;35.00;;;;;12.24;100.00;97049.81;6284723;20;2843989;-57
2022/04/01 07:49:20;;;;;;;;;40.67;35.00;;;;;12.31;100.00;97050.81;6285356;20;3594003;-58
2022/04/01 07:52:11;;;;;;;;;32.33;32.00;;;;;12.27;100.00;97049.50;6284696;20;3593050;-58
2022/04/01 07:54:50;;;;;;;;;29.67;29.67;;;;;12.71;100.00;97051.75;6282848;20;3599220;-57
2022/04/01 07:57:19;;;;;;;;;20.00;17.50;;;;;12.58;100.00;97062.22;6314070;20;2483587;-58
2022/04/01 07:59:48;;;;;;;;;30.00;26.50;;;;;12.87;100.00;97067.00;6284210;20;2852364;-58
2022/04/01 08:02:17;;;;;;;;;24.00;17.00;;;;;12.72;100.00;97058.81;6283658;20;2483781;-58
2022/04/01 08:04:47;;;;;;;;;35.33;32.00;;;;;12.99;100.00;97054.03;6282584;20;3605487;-58
2022/04/01 08:07:17;;;;;;;;;35.33;29.00;;;;;12.93;100.00;97052.88;6318344;20;3606615;-58
2022/04/01 08:09:46;;;;;;;;;29.00;27.00;;;;;12.97;100.00;97056.88;6282085;20;3592022;-58
2022/04/01 08:12:16;;;;;;;;;32.00;30.00;;;;;12.85;100.00;97048.34;6311618;20;3606654;-58
2022/04/01 08:14:45;;;;;;;;;28.33;28.33;;;;;12.66;100.00;97062.19;6319316;20;3581466;-59
2022/04/01 08:17:15;;;;;;;;;30.67;30.67;;;;;12.77;100.00;97067.22;6283479;20;3598258;-58
2022/04/01 08:19:44;;;;;;;;;41.00;32.67;;;;;12.34;100.00;97069.31;6315893;20;3596506;-58
2022/04/01 08:22:14;;;;;;;;;40.33;32.33;;;;;12.55;100.00;97070.63;6281310;20;2884694;-58
2022/04/01 08:24:42;;;;;;;;;36.67;32.00;;;;;12.37;100.00;97074.34;6314396;20;3614942;-58
2022/04/01 08:27:11;;;;;;;;;37.00;29.50;;;;;12.47;100.00;97075.00;6281116;20;2850290;-58
2022/04/01 08:29:41;;;;;;;;;39.00;33.00;;;;;12.37;100.00;97071.66;6281675;20;2851404;-58
2022/04/01 08:32:10;;;;;;;;;43.00;32.67;;;;;12.37;100.00;97066.28;6314722;20;3608570;-58
2022/04/01 08:34:39;;;;;;;;;39.33;32.33;;;;;12.56;100.00;97065.09;6290232;20;3608617;-58
2022/04/01 08:37:08;;;;;;;;;37.00;32.67;;;;;12.70;100.00;97072.44;6285484;20;3615902;-59
2022/04/01 08:39:43;;;;;;;;;38.00;33.67;;;;;12.44;100.00;97072.66;6286221;20;3607570;-57
2022/04/01 08:42:13;;;;;;;;;35.00;34.00;;;;;12.44;100.00;97074.53;6281797;20;3609609;-57
2022/04/01 08:44:46;;;;;;;;;40.00;33.33;;;;;12.62;100.00;97075.16;6313554;20;3583554;-57
2022/04/01 08:47:16;;;;;;;;;32.33;29.67;;;;;12.48;100.00;97079.41;6283599;20;2863888;-57
2022/04/01 08:49:44;;;;;;;;;41.00;34.00;;;;;12.56;100.00;97080.38;6314702;20;3588791;-55
2022/04/01 08:52:14;;;;;;;;;42.33;35.67;;;;;12.45;100.00;97081.56;6281733;20;3583647;-57
2022/04/01 08:54:43;;;;;;;;;40.00;34.00;;;;;12.65;100.00;97079.38;6314436;20;3622193;-55
2022/04/01 08:57:18;;;;;;;;;37.00;31.67;;;;;13.04;100.00;97083.97;6282677;20;3610637;-57
2022/04/01 08:59:48;;;;;;;;;44.00;36.00;;;;;13.05;100.00;97074.84;6310364;20;2850292;-57
2022/04/01 09:02:16;;;;;;;;;41.33;37.00;;;;;13.07;100.00;97072.84;6318686;20;3580489;-57
2022/04/01 09:04:53;;;;;;;;;41.33;35.67;;;;;13.10;100.00;97072.47;6281631;20;2850372;-57
2022/04/01 09:07:24;;;;;;;;;46.33;37.33;;;;;13.13;100.00;97074.81;6317630;20;3604760;-58
2022/04/01 09:10:07;;;;;;;;;46.00;38.00;;;;;13.60;100.00;97071.25;6281233;20;2850441;-58
2022/04/01 09:12:52;;;;;;;;;44.00;35.67;;;;;13.54;100.00;97072.81;6316630;20;3603369;-58
2022/04/01 09:15:21;;;;;;;;;39.67;35.67;;;;;13.74;100.00;97075.84;6284589;20;3580442;-60
2022/04/01 09:17:51;;;;;;;;;39.00;35.00;;;;;13.41;100.00;97085.19;6283793;20;3589964;-60
2022/04/01 09:20:21;;;;;;;;;43.67;35.33;;;;;13.39;100.00;97077.25;6276762;20;2851421;-60
2022/04/01 09:23:01;;;;;;;;;39.33;34.00;;;;;12.98;100.00;97090.03;6317019;20;3581498;-60
2022/04/01 09:25:29;;;;;;;;;41.00;34.00;;;;;13.13;100.00;97077.50;6280536;20;2839845;-49
2022/04/01 09:27:58;;;;;;;;;36.00;30.33;;;;;12.93;100.00;97086.03;6280300;20;3601370;-53
2022/04/01 09:30:31;;;;;;;;;32.67;29.67;;;;;12.70;100.00;97095.84;6281641;20;3603507;-53
2022/04/01 09:33:04;;;;;;;;;31.67;29.33;;;;;12.88;100.00;97101.84;6281329;20;3604383;-52
2022/04/01 09:35:34;;;;;;;;;29.67;27.33;;;;;12.69;100.00;97102.22;6311471;20;2844057;-55
2022/04/01 09:38:04;;;;;;;;;29.67;26.67;;;;;12.51;100.00;97123.97;6314488;20;3611743;-46
2022/04/01 09:40:35;;;;;;;;;15.00;15.00;;;;;11.95;100.00;97122.94;6278101;20;3534618;-46
2022/04/01 09:43:09;;;;;;;;;12.50;12.00;;;;;11.99;100.00;97127.81;6286310;20;2790968;-47
2022/04/01 09:45:39;;;;;;;;;8.80;8.80;;;;;11.94;100.00;97127.47;6307422;20;2750311;-46
2022/04/01 09:48:16;;;;;;;;;12.40;7.80;;;;;11.81;100.00;97129.78;6338682;20;2763855;-47
2022/04/01 09:50:58;;;;;;;;;8.80;7.60;;;;;11.79;100.00;97126.41;6307520;20;2749221;-48
2022/04/01 09:53:28;;;;;;;;;7.50;7.50;;;;;12.01;100.00;97117.75;6316094;20;2733581;-47
2022/04/01 09:55:56;;;;;;;;;6.00;6.00;;;;;12.11;100.00;97120.25;6290766;20;2741933;-47
2022/04/01 09:58:25;;;;;;;;;6.60;6.20;;;;;12.37;100.00;97114.72;6309769;20;2738791;-47
2022/04/01 10:00:55;;;;;;;;;9.00;7.00;;;;;12.39;100.00;97118.09;6321403;20;2744534;-47
2022/04/01 10:03:23;;;;;;;;;10.00;7.00;;;;;12.48;100.00;97116.22;6290303;20;2748180;-48
2022/04/01 10:05:52;;;;;;;;;5.00;3.50;;;;;12.56;100.00;97113.53;6287525;20;2746138;-49
2022/04/01 10:08:23;;;;;;;;;8.00;8.00;;;;;13.31;100.00;97115.88;6284173;20;2752331;-49
2022/04/01 10:10:52;;;;;;;;;5.00;5.00;;;;;12.97;100.00;97105.34;6291378;20;2748217;-48
2022/04/01 10:13:32;;;;;;;;;6.00;6.00;;;;;12.93;100.00;97104.03;6288188;20;2738968;-50
2022/04/01 10:16:02;;;;;;;;;6.00;5.00;;;;;13.37;100.00;97108.94;6286299;20;2748256;-50
2022/04/01 10:18:52;;;;;;;;;8.50;8.50;;;;;13.55;100.00;97114.91;6285605;20;2747200;-57
2022/04/01 10:21:20;;;;;;;;;3.00;3.00;;;;;13.17;100.00;97121.97;6289910;20;2733591;-57
2022/04/01 10:24:41;;;;;;;;;4.00;4.00;;;;;12.94;100.00;97130.78;6289691;20;2751379;-59
2022/04/01 10:27:36;;;;;;;;;3.00;3.00;;;;;12.41;100.00;97136.75;6286874;20;2735733;-57
2022/04/01 10:30:09;;;;;;;;;2.00;2.00;;;;;12.33;100.00;97134.91;6303812;20;1809745;-52
2022/04/01 10:32:41;;;;;;;;;2.00;2.00;;;;;12.17;100.00;97135.75;6318287;20;2737735;-50
2022/04/01 10:35:33;;;;;;;;;5.00;4.00;;;;;12.32;100.00;97148.53;6288177;20;2750375;-52
2022/04/01 10:38:06;;;;;;;;;4.50;4.50;;;;;12.38;100.00;97159.47;6285507;20;2746108;-51
2022/04/01 10:40:43;;;;;;;;;7.14;6.00;;;;;12.55;100.00;97157.59;6328927;20;3455512;-53
2022/04/01 10:43:29;;;;;;;;;11.00;7.00;;;;;12.67;100.00;97166.19;6318553;20;2767006;-52
2022/04/01 10:46:10;;;;;;;;;4.00;4.00;;;;;12.41;100.00;97153.75;6291287;20;2748289;-52
2022/04/01 10:52:17;;;;;;;;;3.00;3.00;;;;;13.04;100.00;97149.44;6288389;20;2739827;-49
2022/04/01 10:55:09;;;;;;;;;3.00;3.00;;;;;12.84;100.00;97154.38;6301990;20;1804572;-51
2022/04/01 10:57:47;;;;;;;;;2.00;2.00;;;;;13.10;100.00;97151.44;6319877;20;2738801;-50
2022/04/01 11:00:18;;;;;;;;;3.00;3.00;;;;;13.41;100.00;97157.97;6283928;20;2753428;-58
2022/04/01 11:02:47;;;;;;;;;2.00;2.00;;;;;13.28;100.00;97150.41;6305410;20;1803479;-58
2022/04/01 11:05:34;;;;;;;;;4.00;4.00;;;;;13.54;100.00;97147.44;6320086;20;2739856;-59
2022/04/01 11:08:21;;;;;;;;;4.00;3.00;;;;;13.53;99.62;97143.06;6284269;20;2754415;-58
2022/04/01 11:11:12;;;;;;;;;6.20;4.00;;;;;13.30;99.75;97154.63;6306069;20;2754415;-58
2022/04/01 11:13:40;;;;;;;;;5.50;5.00;;;;;13.72;99.64;97158.81;6315187;20;2734644;-57
2022/04/01 11:16:21;;;;;;;;;7.00;7.00;;;;;13.58;100.00;97152.28;6286466;20;2746200;-58
2022/04/01 11:19:16;;;;;;;;;5.50;5.50;;;;;13.55;100.00;97149.13;6289350;20;2727408;-57
2022/04/01 11:21:47;;;;;;;;;10.00;9.00;;;;;13.83;100.00;97150.31;6282633;20;2767955;-58
2022/04/01 11:24:41;;;;;;;;;7.00;7.00;;;;;13.46;98.53;97151.03;6284265;20;2733616;-57
2022/04/01 11:27:25;;;;;;;;;7.00;7.00;;;;;13.42;100.00;97157.75;6303435;20;1806609;-58
2022/04/01 11:30:14;;;;;;;;;10.80;10.00;;;;;13.20;100.00;97153.94;6336144;20;2781549;-58
2022/04/01 11:32:48;;;;;;;;;7.00;7.00;;;;;13.34;100.00;97161.31;6309866;20;2736125;-58
2022/04/01 11:35:16;;;;;;;;;13.00;10.00;;;;;13.01;100.00;97165.13;6316775;20;2786710;-58
2022/04/01 11:37:49;;;;;;;;;11.00;9.00;;;;;13.10;100.00;97164.09;6281667;20;2766941;-57
2022/04/01 11:40:22;;;;;;;;;9.00;7.00;;;;;12.59;100.00;97163.50;6285819;20;2752412;-58